createdAt,value
2022-09-23T00:01:15.115Z,5.78
2022-09-23T00:03:45.641Z,7.38
2022-09-23T00:06:20.877Z,5.80
2022-09-23T00:08:49.729Z,7.00
2022-09-23T00:11:19.684Z,5.60
2022-09-23T00:13:48.799Z,8.00
2022-09-23T00:16:19.084Z,6.03
2022-09-23T00:18:46.049Z,7.15
2022-09-23T00:21:14.504Z,8.52
2022-09-23T00:23:43.223Z,5.53
2022-09-23T00:26:12.564Z,7.15
2022-09-23T00:28:40.424Z,6.03
2022-09-23T00:31:13.481Z,6.80
2022-09-23T00:33:43.351Z,8.05
2022-09-23T00:36:15.963Z,9.63
2022-09-23T00:38:44.118Z,8.48
2022-09-23T00:41:11.847Z,7.97
2022-09-23T00:43:44.614Z,7.00
2022-09-23T00:46:22.325Z,7.07
2022-09-23T00:48:54.778Z,7.05
2022-09-23T00:51:24.712Z,5.55
2022-09-23T00:53:52.394Z,7.00
2022-09-23T00:56:22.955Z,6.75
2022-09-23T00:58:51.672Z,8.18
2022-09-23T01:01:19.699Z,6.40
2022-09-23T01:03:47.238Z,6.47
2022-09-23T01:06:14.739Z,8.13
2022-09-23T01:08:44.293Z,13.48
2022-09-23T01:11:32.921Z,9.98
2022-09-23T01:14:02.493Z,6.45
2022-09-23T01:16:45.335Z,7.90
2022-09-23T01:19:30.756Z,7.50
2022-09-23T01:22:08.394Z,7.22
2022-09-23T01:24:35.277Z,9.60
2022-09-23T01:27:14.114Z,9.00
2022-09-23T01:30:07.909Z,7.88
2022-09-23T01:33:09.002Z,6.43
2022-09-23T01:35:47.654Z,8.15
2022-09-23T01:38:35.840Z,8.27
2022-09-23T01:41:36.582Z,6.70
2022-09-23T01:44:29.381Z,7.43
2022-09-23T01:47:10.862Z,6.28
2022-09-23T01:49:50.810Z,8.82
2022-09-23T01:52:23.377Z,8.02
2022-09-23T01:55:03.688Z,8.65
2022-09-23T01:57:42.473Z,7.97
2022-09-23T02:00:11.616Z,9.45
2022-09-23T02:02:57.596Z,7.40
2022-09-23T02:05:52.638Z,9.20
2022-09-23T02:08:28.068Z,7.78
2022-09-23T02:11:00.532Z,8.35
2022-09-23T02:13:38.712Z,7.75
2022-09-23T02:16:14.147Z,8.13
2022-09-23T02:18:49.399Z,9.05
2022-09-23T02:21:20.104Z,6.97
2022-09-23T02:23:52.109Z,6.88
2022-09-23T02:26:37.486Z,9.85
2022-09-23T02:29:27.370Z,6.82
2022-09-23T02:32:02.217Z,9.93
2022-09-23T02:35:11.388Z,8.50
2022-09-23T02:38:10.702Z,8.10
2022-09-23T02:41:04.640Z,8.02
2022-09-23T02:43:33.886Z,7.88
2022-09-23T02:46:01.481Z,8.57
2022-09-23T02:48:35.083Z,8.18
2022-09-23T02:51:03.600Z,8.57
2022-09-23T02:53:34.594Z,8.52
2022-09-23T02:56:03.094Z,9.18
2022-09-23T02:58:30.105Z,8.15
2022-09-23T03:01:11.032Z,7.80
2022-09-23T03:03:49.906Z,8.77
2022-09-23T03:06:46.903Z,7.68
2022-09-23T03:09:25.561Z,9.35
2022-09-23T03:12:40.677Z,9.15
2022-09-23T03:15:19.514Z,10.00
2022-09-23T03:18:05.341Z,7.18
2022-09-23T03:20:34.619Z,8.63
2022-09-23T03:23:10.314Z,7.53
2022-09-23T03:25:41.151Z,9.20
2022-09-23T03:28:09.385Z,7.05
2022-09-23T03:30:37.399Z,7.20
2022-09-23T03:33:08.257Z,7.63
2022-09-23T03:36:02.672Z,8.70
2022-09-23T03:38:35.016Z,9.90
2022-09-23T03:41:04.178Z,8.10
2022-09-23T03:43:35.216Z,6.18
2022-09-23T03:46:07.183Z,9.23
2022-09-23T03:48:34.178Z,7.15
2022-09-23T03:51:19.230Z,7.85
2022-09-23T03:53:46.018Z,8.35
2022-09-23T03:56:12.786Z,8.23
2022-09-23T03:58:39.903Z,8.60
2022-09-23T04:01:07.350Z,10.50
2022-09-23T04:03:34.100Z,9.00
2022-09-23T04:06:01.940Z,11.48
2022-09-23T04:08:28.719Z,8.68
2022-09-23T04:11:01.570Z,9.60
2022-09-23T04:13:29.369Z,10.00
2022-09-23T04:15:56.139Z,7.20
2022-09-23T04:18:23.304Z,9.00
2022-09-23T04:20:50.087Z,6.55
2022-09-23T04:23:16.985Z,7.45
2022-09-23T04:25:47.610Z,9.40
2022-09-23T04:28:14.851Z,10.30
2022-09-23T04:30:46.128Z,7.50
2022-09-23T04:33:13.750Z,10.05
2022-09-23T04:35:43.382Z,8.93
2022-09-23T04:38:12.432Z,11.23
2022-09-23T04:40:39.566Z,15.38
2022-09-23T04:43:09.467Z,8.57
2022-09-23T04:45:38.448Z,7.65
2022-09-23T04:48:05.212Z,6.85
2022-09-23T04:50:33.871Z,7.03
2022-09-23T04:53:00.761Z,6.95
2022-09-23T04:55:27.487Z,7.72
2022-09-23T04:57:54.623Z,10.02
2022-09-23T05:02:50.564Z,6.22
2022-09-23T05:05:22.290Z,10.23
2022-09-23T05:07:49.080Z,6.25
2022-09-23T05:10:16.671Z,6.68
2022-09-23T05:12:43.660Z,9.35
2022-09-23T05:17:37.282Z,8.35
2022-09-23T05:20:04.769Z,6.82
2022-09-23T05:22:31.763Z,7.35
2022-09-23T05:25:00.253Z,9.30
2022-09-23T05:27:27.187Z,9.30
2022-09-23T05:29:54.220Z,8.55
2022-09-23T05:32:21.795Z,8.63
2022-09-23T05:34:48.719Z,9.68
2022-09-23T05:37:15.672Z,9.05
2022-09-23T05:39:42.528Z,12.80
2022-09-23T05:42:09.842Z,10.57
2022-09-23T05:44:36.529Z,8.38
2022-09-23T05:47:03.478Z,9.65
2022-09-23T05:52:17.767Z,8.23
2022-09-23T05:54:44.475Z,9.77
2022-09-23T05:57:11.827Z,9.57
2022-09-23T05:59:38.528Z,6.45
2022-09-23T06:06:17.862Z,8.32
2022-09-23T06:08:45.347Z,9.07
2022-09-23T06:11:13.238Z,9.80
2022-09-23T06:13:40.890Z,11.57
2022-09-23T06:16:09.846Z,9.10
2022-09-23T06:18:42.708Z,8.77
2022-09-23T06:21:12.928Z,14.43
2022-09-23T06:23:41.948Z,20.83
2022-09-23T06:26:11.167Z,9.73
2022-09-23T06:28:40.437Z,9.77
2022-09-23T06:31:13.299Z,8.15
2022-09-23T06:33:42.562Z,9.15
2022-09-23T06:36:09.729Z,7.47
2022-09-23T06:38:40.149Z,8.93
2022-09-23T06:41:07.008Z,7.85
2022-09-23T06:43:33.872Z,8.07
2022-09-23T06:46:03.835Z,6.90
2022-09-23T06:48:34.335Z,8.93
2022-09-23T06:51:02.522Z,8.65
2022-09-23T06:53:32.292Z,11.20
2022-09-23T06:56:00.312Z,12.10
2022-09-23T06:58:27.202Z,9.25
2022-09-23T07:00:54.484Z,9.13
2022-09-23T07:03:22.235Z,6.72
2022-09-23T07:05:49.152Z,8.15
2022-09-23T07:08:16.355Z,7.13
2022-09-23T07:10:43.103Z,8.27
2022-09-23T07:13:13.003Z,8.23
2022-09-23T07:15:42.939Z,7.20
2022-09-23T07:18:09.732Z,7.80
2022-09-23T07:20:36.369Z,8.45
2022-09-23T07:23:03.144Z,6.40
2022-09-23T07:25:29.954Z,9.35
2022-09-23T07:27:56.710Z,6.45
2022-09-23T07:30:25.539Z,11.82
2022-09-23T07:32:53.165Z,8.38
2022-09-23T07:35:19.975Z,10.20
2022-09-23T07:37:47.022Z,8.75
2022-09-23T07:42:41.128Z,7.32
2022-09-23T07:45:09.070Z,7.75
2022-09-23T07:47:36.014Z,5.63
2022-09-23T07:50:03.138Z,6.55
2022-09-23T07:52:29.964Z,6.35
2022-09-23T07:54:56.713Z,8.30
2022-09-23T07:57:24.010Z,5.95
2022-09-23T07:59:50.692Z,6.65
2022-09-23T08:02:17.429Z,8.95
2022-09-23T08:04:44.206Z,6.00
2022-09-23T08:07:12.590Z,7.15
2022-09-23T08:09:41.910Z,7.38
2022-09-23T08:12:16.277Z,7.15
2022-09-23T08:14:43.613Z,5.93
2022-09-23T08:17:12.255Z,7.75
2022-09-23T08:19:38.961Z,7.85
2022-09-23T08:22:05.772Z,4.75
2022-09-23T08:24:32.493Z,4.53
2022-09-23T08:26:59.298Z,6.25
2022-09-23T08:31:54.166Z,3.73
2022-09-23T08:34:22.770Z,4.13
2022-09-23T08:36:49.956Z,5.18
2022-09-23T08:39:18.692Z,4.22
2022-09-23T08:41:58.495Z,3.88
2022-09-23T08:44:53.266Z,3.92
2022-09-23T08:47:23.003Z,3.80
2022-09-23T08:50:11.875Z,5.53
2022-09-23T08:52:51.369Z,3.47
2022-09-23T08:55:19.468Z,4.22
2022-09-23T08:58:24.329Z,3.30
2022-09-23T09:01:08.115Z,3.55
2022-09-23T09:03:54.784Z,3.83
2022-09-23T09:06:52.464Z,3.03
2022-09-23T09:09:49.308Z,3.08
2022-09-23T09:12:20.485Z,2.72
2022-09-23T09:14:55.252Z,2.85
2022-09-23T09:17:52.708Z,3.63
2022-09-23T09:20:50.228Z,4.60
2022-09-23T09:23:22.620Z,4.43
2022-09-23T09:25:52.486Z,4.07
2022-09-23T09:28:30.853Z,4.05
2022-09-23T09:31:01.301Z,4.07
2022-09-23T09:33:36.161Z,2.80
2022-09-23T09:36:21.768Z,2.88
2022-09-23T09:38:48.553Z,4.15
2022-09-23T09:41:17.827Z,4.30
2022-09-23T09:43:52.276Z,3.28
2022-09-23T09:46:36.764Z,3.05
2022-09-23T09:49:25.787Z,3.60
2022-09-23T09:52:14.733Z,4.07
2022-09-23T09:54:44.360Z,2.85
2022-09-23T09:57:35.218Z,3.50
2022-09-23T10:00:21.738Z,2.83
2022-09-23T10:03:03.582Z,4.60
2022-09-23T10:05:32.486Z,3.47
2022-09-23T10:08:21.175Z,3.90
2022-09-23T10:11:01.036Z,4.25
2022-09-23T10:13:29.459Z,3.50
2022-09-23T10:16:01.286Z,2.75
2022-09-23T10:18:38.583Z,3.20
2022-09-23T10:21:12.085Z,3.70
2022-09-23T10:23:42.312Z,3.60
2022-09-23T10:26:11.966Z,4.95
2022-09-23T10:28:44.102Z,4.22
2022-09-23T10:31:14.141Z,5.75
2022-09-23T10:33:47.657Z,3.15
2022-09-23T10:36:16.798Z,3.90
2022-09-23T10:38:44.027Z,4.32
2022-09-23T10:41:49.984Z,3.83
2022-09-23T10:44:58.130Z,4.47
2022-09-23T10:47:34.090Z,3.72
2022-09-23T10:53:01.226Z,5.15
2022-09-23T10:55:40.453Z,5.82
2022-09-23T10:58:43.316Z,3.85
2022-09-23T11:01:21.820Z,4.45
2022-09-23T11:04:12.188Z,3.80
2022-09-23T11:06:54.297Z,3.28
2022-09-23T11:09:49.016Z,6.38
2022-09-23T11:12:57.876Z,9.23
2022-09-23T11:15:32.856Z,4.07
2022-09-23T11:18:22.763Z,4.57
2022-09-23T11:21:31.729Z,3.53
2022-09-23T11:24:20.032Z,4.32
2022-09-23T11:27:17.613Z,4.22
2022-09-23T11:29:55.354Z,2.95
2022-09-23T11:32:34.065Z,5.28
2022-09-23T11:35:28.983Z,3.20
2022-09-23T11:38:11.757Z,7.47
2022-09-23T11:40:45.589Z,4.38
2022-09-23T11:43:34.438Z,3.75
2022-09-23T11:46:14.118Z,4.88
2022-09-23T11:48:49.173Z,3.13
2022-09-23T11:51:24.601Z,3.17
2022-09-23T11:54:04.194Z,3.57
2022-09-23T11:56:57.240Z,3.00
2022-09-23T11:59:43.592Z,4.88
2022-09-23T12:02:23.691Z,4.65
2022-09-23T12:05:13.414Z,3.90
2022-09-23T12:07:57.617Z,3.97
2022-09-23T12:10:52.494Z,3.50
2022-09-23T12:13:34.198Z,3.88
2022-09-23T12:16:38.408Z,3.42
2022-09-23T12:19:36.341Z,5.95
2022-09-23T12:22:45.773Z,3.17
2022-09-23T12:25:35.677Z,4.07
2022-09-23T12:28:10.292Z,3.28
2022-09-23T12:30:38.524Z,4.82
2022-09-23T12:33:32.692Z,4.05
2022-09-23T12:36:08.350Z,6.05
2022-09-23T12:38:41.688Z,4.20
2022-09-23T12:41:26.616Z,4.63
2022-09-23T12:44:00.672Z,3.40
2022-09-23T12:46:28.088Z,4.88
2022-09-23T12:48:58.023Z,4.45
2022-09-23T12:51:26.327Z,4.45
2022-09-23T12:54:15.497Z,3.08
2022-09-23T12:56:43.392Z,2.67
2022-09-23T12:59:17.877Z,5.28
2022-09-23T13:01:45.038Z,3.75
2022-09-23T13:05:02.009Z,3.22
2022-09-23T13:07:32.222Z,4.35
2022-09-23T13:10:07.843Z,3.63
2022-09-23T13:12:39.444Z,5.32
2022-09-23T13:15:39.328Z,3.58
2022-09-23T13:18:24.848Z,3.05
2022-09-23T13:20:53.944Z,3.38
2022-09-23T13:23:22.223Z,2.95
2022-09-23T13:25:53.655Z,2.75
2022-09-23T13:28:33.445Z,3.10
2022-09-23T13:31:05.363Z,2.53
2022-09-23T13:33:38.851Z,3.67
2022-09-23T13:36:14.998Z,4.22
2022-09-23T13:38:42.403Z,3.33
2022-09-23T13:41:22.200Z,3.75
2022-09-23T13:43:59.866Z,5.40
2022-09-23T13:46:30.486Z,4.43
2022-09-23T13:48:57.465Z,4.05
2022-09-23T13:51:33.190Z,3.67
2022-09-23T13:54:02.201Z,2.92
2022-09-23T13:56:31.464Z,4.10
2022-09-23T13:59:24.164Z,3.00
2022-09-23T14:01:51.291Z,5.25
2022-09-23T14:04:25.958Z,3.70
2022-09-23T14:06:53.867Z,2.97
2022-09-23T14:09:27.278Z,3.38
2022-09-23T14:11:57.108Z,3.85
2022-09-23T14:14:24.148Z,4.28
2022-09-23T14:16:52.054Z,3.35
2022-09-23T14:19:22.344Z,4.72
2022-09-23T14:21:53.004Z,3.83
2022-09-23T14:24:24.095Z,2.67
2022-09-23T14:26:56.261Z,3.13
2022-09-23T14:29:30.392Z,4.72
2022-09-23T14:32:04.372Z,3.00
2022-09-23T14:34:52.687Z,3.80
2022-09-23T14:37:50.442Z,3.13
2022-09-23T14:40:20.720Z,4.60
2022-09-23T14:43:24.945Z,3.72
2022-09-23T14:45:57.652Z,4.95
2022-09-23T14:48:25.647Z,3.83
2022-09-23T14:50:58.528Z,3.83
2022-09-23T14:53:31.216Z,3.50
2022-09-23T14:56:07.191Z,3.15
2022-09-23T14:58:53.548Z,4.30
2022-09-23T15:01:32.690Z,2.42
2022-09-23T15:04:38.195Z,3.83
2022-09-23T15:07:14.784Z,4.30
2022-09-23T15:12:20.955Z,3.60
2022-09-23T15:14:54.964Z,4.80
2022-09-23T15:17:24.394Z,3.08
2022-09-23T15:19:57.593Z,3.33
2022-09-23T15:22:25.473Z,4.03
2022-09-23T15:24:53.870Z,2.47
2022-09-23T15:27:33.813Z,4.38
2022-09-23T15:30:17.300Z,4.13
2022-09-23T15:32:45.198Z,2.83
2022-09-23T15:35:23.593Z,2.47
2022-09-23T15:37:51.507Z,2.90
2022-09-23T15:40:23.585Z,4.03
2022-09-23T15:42:52.450Z,2.80
2022-09-23T15:45:22.054Z,4.05
2022-09-23T15:47:50.431Z,3.58
2022-09-23T15:50:17.354Z,4.32
2022-09-23T15:52:44.960Z,4.47
2022-09-23T15:55:23.537Z,4.13
2022-09-23T15:57:51.219Z,3.72
2022-09-23T16:00:18.072Z,4.15
2022-09-23T16:02:46.863Z,6.25
2022-09-23T16:05:27.373Z,5.20
2022-09-23T16:07:54.133Z,5.00
2022-09-23T16:10:22.342Z,5.60
2022-09-23T16:12:49.575Z,4.40
2022-09-23T16:15:21.176Z,4.40
2022-09-23T16:17:47.874Z,3.38
2022-09-23T16:20:17.660Z,2.90
2022-09-23T16:23:34.227Z,4.25
2022-09-23T16:26:15.154Z,3.33
2022-09-23T16:28:43.131Z,6.20
2022-09-23T16:31:11.779Z,8.10
2022-09-23T16:33:38.930Z,3.45
2022-09-23T16:36:09.496Z,6.05
2022-09-23T16:38:36.152Z,6.95
2022-09-23T16:43:39.143Z,6.47
2022-09-23T16:46:12.144Z,6.15
2022-09-23T16:48:42.769Z,5.05
2022-09-23T16:51:16.052Z,4.68
2022-09-23T16:53:42.785Z,4.90
2022-09-23T16:58:39.328Z,8.48
2022-09-23T17:01:26.163Z,6.35
2022-09-23T17:03:53.144Z,7.07
2022-09-23T17:06:20.632Z,7.28
2022-09-23T17:08:48.230Z,6.13
2022-09-23T17:11:16.432Z,5.00
2022-09-23T17:13:44.128Z,5.03
2022-09-23T17:16:21.696Z,4.80
2022-09-23T17:18:49.669Z,8.35
2022-09-23T17:21:16.982Z,7.68
2022-09-23T17:23:43.727Z,5.10
2022-09-23T17:28:39.154Z,5.47
2022-09-23T17:31:07.812Z,5.60
2022-09-23T17:33:38.001Z,4.53
2022-09-23T17:36:09.870Z,4.97
2022-09-23T17:38:39.099Z,4.88
2022-09-23T17:41:07.684Z,4.05
2022-09-23T17:43:35.128Z,4.28
2022-09-23T17:46:06.340Z,5.22
2022-09-23T17:48:35.491Z,4.65
2022-09-23T17:51:12.179Z,4.97
2022-09-23T17:53:40.485Z,9.07
2022-09-23T17:56:12.314Z,3.42
2022-09-23T17:58:39.199Z,3.80
2022-09-23T18:01:10.595Z,3.70
2022-09-23T18:03:38.303Z,4.32
2022-09-23T18:06:11.367Z,4.85
2022-09-23T18:08:39.273Z,6.28
2022-09-23T18:11:12.229Z,4.53
2022-09-23T18:13:38.949Z,4.28
2022-09-23T18:16:06.009Z,8.73
2022-09-23T18:18:32.888Z,7.25
2022-09-23T18:23:27.106Z,7.43
2022-09-23T18:25:53.820Z,7.05
2022-09-23T18:28:20.588Z,5.78
2022-09-23T18:30:54.825Z,8.77
2022-09-23T18:33:23.644Z,6.90
2022-09-23T18:35:54.204Z,5.90
2022-09-23T18:38:21.042Z,4.65
2022-09-23T18:43:25.598Z,7.30
2022-09-23T18:46:17.106Z,9.40
2022-09-23T18:49:02.940Z,8.18
2022-09-23T18:51:30.664Z,8.45
2022-09-23T18:53:58.752Z,12.25
2022-09-23T18:56:29.645Z,13.77
2022-09-23T18:58:56.639Z,16.67
2022-09-23T19:03:57.470Z,14.45
2022-09-23T19:06:25.094Z,8.55
2022-09-23T19:08:53.923Z,9.10
2022-09-23T19:11:22.136Z,11.93
2022-09-23T19:13:58.426Z,8.35
2022-09-23T19:16:26.097Z,10.18
2022-09-23T19:18:53.641Z,7.20
2022-09-23T19:21:22.452Z,10.30
2022-09-23T19:24:03.185Z,7.88
2022-09-23T19:26:37.423Z,8.38
2022-09-23T19:29:05.610Z,6.07
2022-09-23T19:31:35.740Z,5.93
2022-09-23T19:34:05.999Z,7.28
2022-09-23T19:36:34.424Z,9.15
2022-09-23T19:39:04.409Z,11.52
2022-09-23T19:41:33.206Z,12.45
2022-09-23T19:44:03.995Z,8.63
2022-09-23T19:46:32.256Z,11.35
2022-09-23T19:49:00.493Z,9.90
2022-09-23T19:51:28.162Z,7.82
2022-09-23T19:53:54.920Z,6.45
2022-09-23T19:56:21.956Z,7.72
2022-09-23T19:58:54.166Z,11.05
2022-09-23T20:01:22.410Z,11.57
2022-09-23T20:03:50.293Z,10.88
2022-09-23T20:06:17.925Z,11.43
2022-09-23T20:08:45.327Z,9.43
2022-09-23T20:11:23.672Z,9.68
2022-09-23T20:14:00.618Z,7.03
2022-09-23T20:16:31.664Z,11.38
2022-09-23T20:19:00.984Z,6.50
2022-09-23T20:21:29.482Z,8.40
2022-09-23T20:23:57.039Z,7.78
2022-09-23T20:26:42.329Z,7.20
2022-09-23T20:29:10.596Z,6.60
2022-09-23T20:36:52.889Z,6.95
2022-09-23T20:39:19.592Z,8.18
2022-09-23T20:41:48.112Z,8.55
2022-09-23T20:44:14.824Z,10.18
2022-09-23T20:46:48.343Z,17.92
2022-09-23T20:49:17.282Z,10.52
2022-09-23T20:51:44.369Z,9.48
2022-09-23T20:54:12.212Z,7.10
2022-09-23T20:56:39.144Z,7.72
2022-09-23T21:01:35.178Z,9.75
2022-09-23T21:04:04.811Z,6.80
2022-09-23T21:06:33.481Z,8.10
2022-09-23T21:09:00.832Z,10.98
2022-09-23T21:11:28.086Z,12.45
2022-09-23T21:13:56.029Z,7.57
2022-09-23T21:16:24.619Z,8.13
2022-09-23T21:18:52.207Z,9.07
2022-09-23T21:21:22.366Z,8.38
2022-09-23T21:23:50.554Z,7.68
2022-09-23T21:26:23.111Z,7.78
2022-09-23T21:28:52.435Z,12.15
2022-09-23T21:31:25.663Z,6.70
2022-09-23T21:34:07.392Z,8.48
2022-09-23T21:36:39.176Z,8.95
2022-09-23T21:39:07.847Z,7.25
2022-09-23T21:41:34.868Z,7.63
2022-09-23T21:44:04.698Z,9.70
2022-09-23T21:46:35.451Z,7.22
2022-09-23T21:49:03.889Z,7.35
2022-09-23T21:51:40.509Z,7.68
2022-09-23T21:54:16.079Z,10.98
2022-09-23T21:56:44.076Z,6.47
2022-09-23T21:59:11.126Z,7.30
2022-09-23T22:04:14.757Z,9.15
2022-09-23T22:06:41.880Z,8.63
2022-09-23T22:12:02.609Z,9.02
2022-09-23T22:14:30.456Z,11.55
2022-09-23T22:17:00.417Z,8.88
2022-09-23T22:19:35.363Z,7.88
2022-09-23T22:22:08.023Z,9.85
2022-09-23T22:24:34.790Z,9.63
2022-09-23T22:27:01.571Z,9.27
2022-09-23T22:29:47.238Z,8.93
2022-09-23T22:32:32.585Z,10.98
2022-09-23T22:34:59.355Z,9.35
2022-09-23T22:37:34.065Z,11.45
2022-09-23T22:40:05.947Z,10.43
2022-09-23T22:42:33.048Z,10.63
2022-09-23T22:45:00.247Z,11.57
2022-09-23T22:47:27.057Z,9.23
2022-09-23T22:49:55.610Z,10.63
2022-09-23T22:52:24.287Z,5.50
2022-09-23T22:54:52.050Z,7.32
2022-09-23T22:57:21.811Z,6.63
2022-09-23T22:59:48.756Z,6.50
2022-09-23T23:04:46.528Z,6.93
2022-09-23T23:07:14.781Z,12.50
2022-09-23T23:09:41.968Z,9.48
2022-09-23T23:12:08.902Z,11.63
2022-09-23T23:17:07.130Z,9.65
2022-09-23T23:19:35.058Z,11.38
2022-09-23T23:22:02.179Z,9.52
2022-09-23T23:24:29.020Z,11.80
2022-09-23T23:26:56.034Z,8.05
2022-09-23T23:31:51.108Z,9.85
2022-09-23T23:34:20.469Z,5.65
2022-09-23T23:36:54.980Z,7.10
2022-09-23T23:39:23.471Z,8.27
2022-09-23T23:41:55.069Z,7.82
2022-09-23T23:44:23.787Z,6.40
2022-09-23T23:46:51.372Z,8.20
2022-09-23T23:49:18.244Z,8.85
2022-09-23T23:51:45.270Z,6.45
2022-09-23T23:56:38.934Z,8.10
2022-09-23T23:59:05.700Z,9.32
